Home > Products > Valid Products > TAF

000
FTUS44 KMAF 020500
TAFMAF
TAF
KMAF 020525Z 0206/0306 07007KT P6SM SCT250=



000
FTUS44 KMAF 012300
TAFMAF
TAF
KMAF 012322Z 0200/0224 10008KT P6SM SCT070=



000
FTUS44 KMAF 011700
TAFMAF
TAF
KMAF 011738Z 0118/0218 07007KT P6SM FEW070 SCT200=



000
FTUS44 KMAF 011100
TAFMAF
TAF
KMAF 011120Z 0112/0212 06007KT P6SM SCT250=



000
FTUS44 KMAF 011000 AAA
TAFMAF
TAF AMD
KMAF 011019Z 0110/0206 06007KT P6SM SCT250=



000
FTUS44 KMAF 010800 AAA
TAFMAF
TAF AMD
KMAF 010802Z 0108/0206 07008KT P6SM SCT250
     FM020200 06007KT P6SM BKN200=



000
FTUS44 KMAF 010500
TAFMAF
TAF
KMAF 010520Z 0106/0206 07007KT P6SM SCT200
     FM011900 06010G20KT P6SM SCT060 SCT250
     FM020200 06007KT P6SM BKN200=



000
FTUS44 KMAF 010200 AAA
TAFMAF
TAF AMD
KMAF 010216Z 0102/0124 09008KT P6SM FEW120 SCT200
     FM010600 VRB05KT P6SM SCT250=



000
FTUS44 KMAF 312300
TAFMAF
TAF
KMAF 312321Z 0100/0124 02011KT P6SM SCT120 SCT200
     FM010600 VRB05KT P6SM SCT250=



000
FTUS44 KMAF 312200 AAA
TAFMAF
TAF AMD
KMAF 312220Z 3122/0118 03011KT P6SM SCT120 SCT200
     FM010600 VRB05KT P6SM SCT250=



000
FTUS44 KMAF 311700
TAFMAF
TAF
KMAF 311721Z 3118/0118 01011KT P6SM OVC025
     FM311900 03011KT P6SM SCT040 SCT130 SCT200=



000
FTUS44 KMAF 311600 CCA
TAFMAF
TAF COR
KMAF 311623Z 3115/0112 02011KT P6SM OVC035
      TEMPO 3115/3117 BKN025
     FM311800 03011KT P6SM SCT040 BKN130=



000
FTUS44 KMAF 311500 AAB
TAFMAF
TAF AMD
KMAF 311515Z 3115/0112 02011KT P6SM OVC035
      TEMPO 3115/3117 5SM -TSRA BKN025 BKN040CB
     FM311800 03011KT P6SM SCT040 BKN130=



000
FTUS44 KMAF 311300 AAA
TAFMAF
TAF AMD
KMAF 311344Z 3114/0112 02011KT P6SM OVC035
      TEMPO 3114/3116 BKN025
     FM311600 03011KT P6SM SCT040 BKN130=



000
FTUS44 KMAF 311100 CCA
TAFMAF
TAF COR
KMAF 311139Z 3112/0112 03014KT P6SM OVC025
     FM311600 03011KT P6SM SCT040 BKN130=



000
FTUS44 KMAF 311100
TAFMAF
TAF
KMAF 311121Z 3112/0112 03014KT P6SM BKN018
     FM311600 03011KT P6SM SCT040 BKN130=



000
FTUS44 KMAF 311000 AAA
TAFMAF
TAF AMD
KMAF 311009Z 3110/0106 03014KT P6SM BKN018
     FM311600 03011KT P6SM SCT040 BKN130=



000
FTUS44 KMAF 310800 AAC
TAFMAF
TAF AMD
KMAF 310831Z 3109/0106 03014KT P6SM BKN025
     FM311600 03011KT P6SM SCT040 BKN130=



000
FTUS44 KMAF 310700 AAB
TAFMAF
TAF AMD
KMAF 310706Z 3107/0106 02011G20KT P6SM SCT030 BKN100
      TEMPO 3110/3112 BKN030
     FM311200 04013KT P6SM SCT050 BKN200=



000
FTUS44 KMAF 310500 AAA
TAFMAF
TAF AMD
KMAF 310542Z 3106/0106 05011KT P6SM SCT100 OVC200
      TEMPO 3106/3107 VRB20G30KT TSRA BKN100CB
     FM310700 02015G24KT P6SM BKN100
     FM310900 05015KT P6SM FEW050 BKN200=



000
FTUS44 KMAF 310500
TAFMAF
TAF
KMAF 310520Z 3106/0106 05011KT P6SM SCT100 OVC200
      TEMPO 3106/3107 VRB20G30KT 5SM TSRA BKN100CB
     FM310700 02015G24KT P6SM BKN100
     FM310900 05015KT P6SM FEW050 BKN200=



000
FTUS44 KMAF 310400 AAA
TAFMAF
TAF AMD
KMAF 310453Z 3105/3124 02011KT P6SM SCT100 BKN200
      TEMPO 3105/3107 VRB20G30KT 5SM TSRA BKN100CB
     FM310700 02015G24KT P6SM BKN100
     FM310900 05015KT P6SM BKN120=



000
FTUS44 KMAF 310200 AAE
TAFMAF
TAF AMD
KMAF 310259Z 3103/3124 02011KT P6SM SCT100 BKN200
      TEMPO 3103/3105 VRB20G30KT 5SM TSRA BKN100CB
     FM310500 04015G24KT P6SM BKN100
     FM310900 05015KT P6SM BKN120=



000
FTUS44 KMAF 310200 AAD
TAFMAF
TAF AMD
KMAF 310210Z 3102/3124 04011KT P6SM SCT100 BKN200
      TEMPO 3102/3105 VRB20G30KT TSRA BKN100CB
     FM310500 04015G24KT P6SM BKN100
     FM310900 05015KT P6SM BKN120=



000
FTUS44 KMAF 310100 AAC
TAFMAF
TAF AMD
KMAF 310113Z 3101/3124 04011KT P6SM SCT100 BKN200
     FM310300 04015G24KT P6SM BKN100
     FM310900 05015KT P6SM BKN120=



000
FTUS44 KMAF 310000 AAB
TAFMAF
TAF AMD
KMAF 310012Z 3100/3124 02015KT P6SM SCT030 BKN100
      TEMPO 3100/3102 VRB25G40KT 5SM TSRA BLDU BKN100CB
     FM310300 02015G24KT P6SM BKN100
     FM310900 04015KT P6SM BKN120=



000
FTUS44 KMAF 302300 AAA
TAFMAF
TAF AMD
KMAF 302339Z 3100/3124 35025G35KT 5SM TSRA BLDU SCT010 BKN100CB
      TEMPO 3100/3101 VRB25G40KT 3SM TSRA BLDU BKN100CB
     FM310300 02015G24KT P6SM BKN100
     FM310900 04015KT P6SM BKN120=



000
FTUS44 KMAF 302300 AAA
TAFMAF
TAF AMD
KMAF 302329Z 3023/3124 31010KT 1SM TSRA BLDU SCT010CB BKN100CB
      TEMPO 3100/3101 VRB25G40KT 3SM TSRA BLDU
     FM310300 02015G24KT P6SM BKN100
     FM310900 04015KT P6SM BKN120=



000
FTUS44 KMAF 302300
TAFMAF
TAF
KMAF 302328Z 3100/3124 31010KT 1/4SM TSRA BLDU SCT010CB BKN100CB
      TEMPO 3100/3101 VRB25G40KT 3SM TSRA BLDU
     FM310300 02015G24KT P6SM BKN100
     FM310900 04015KT P6SM BKN120=



000
FTUS44 KMAF 302300 AAD
TAFMAF
TAF AMD
KMAF 302316Z 3023/3118 21010KT P6SM SCT080 BKN250
      TEMPO 3023/3024 VRB25G40KT 1/4SM TSRA BLDU BKN050CB
     FM310100 04015G24KT P6SM BKN100=



000
FTUS44 KMAF 302300 AAC
TAFMAF
TAF AMD
KMAF 302312Z 3023/3118 21010KT P6SM SCT080 BKN250
      TEMPO 3023/3101 VRB25G40KT 1SM TSRA BLDU BKN050CB
     FM310100 04015G24KT P6SM BKN100=



000
FTUS44 KMAF 302300 AAB
TAFMAF
TAF AMD
KMAF 302308Z 3023/3118 21010KT P6SM SCT080 BKN250
      TEMPO 3023/3101 VRB25G40KT 3SM TSRA BLDU BKN050CB
     FM310100 04015G24KT P6SM BKN100=



000
FTUS44 KMAF 302200 AAA
TAFMAF
TAF AMD
KMAF 302227Z 3022/3118 21010KT P6SM SCT080 BKN250
      TEMPO 3022/3101 VRB25G40KT 5SM TSRA BKN050CB
     FM310100 04015G24KT P6SM BKN100=



000
FTUS44 KMAF 302000 AAB
TAFMAF
TAF AMD
KMAF 302006Z 3020/3118 19011KT P6SM SCT100
     FM302200 24010KT P6SM SCT100 SCT250
      TEMPO 3023/3101 VRB25G40KT 5SM TSRA BKN050CB
     FM310100 04015G24KT P6SM BKN100=



000
FTUS44 KMAF 301800 CCA
TAFMAF
TAF COR
KMAF 301846Z 3019/3118 22011KT P6SM SCT100
     FM302200 24010KT P6SM SCT100 SCT250
      TEMPO 3023/3101 VRB25G40KT 5SM TSRA BKN050CB
     FM310100 04015G24KT P6SM BKN100=



000
FTUS44 KMAF 301800 AAA
TAFMAF
TAF AMD
KMAF 301832Z 3019/3118 18011KT P6SM SCT100
     FM302200 24010KT P6SM SCT100 SCT250
      TEMPO 3023/3101 VRB25G40KT 5SM TSRA BKN050CB
     FM310100 04015G24KT P6SM BKN100=



000
FTUS44 KMAF 301700
TAFMAF
TAF
KMAF 301728Z 3018/3118 20009G17KT P6SM SCT060
     FM302200 24010KT P6SM SCT100 SCT250
      TEMPO 3023/3101 VRB25G40KT 5SM TSRA BKN050CB
     FM310100 04015G24KT P6SM BKN100=



000
FTUS44 KMAF 301300 AAA
TAFMAF
TAF AMD
KMAF 301304Z 3013/3112 18011KT P6SM SCT100 BKN250
     FM301500 20014G23KT P6SM SCT060 SCT250
     FM302200 36010KT P6SM BKN060 OVC250 PROB30 3022/3103 TSRA
      BKN050CB
     FM310300 03012KT P6SM BKN100=



000
FTUS44 KMAF 301100
TAFMAF
TAF
KMAF 301124Z 3012/3112 15010KT P6SM SCT100 BKN250
     FM301500 21015G25KT P6SM SCT060 SCT250
     FM302200 36010KT P6SM BKN060 OVC250 PROB30 3022/3103 TSRA
      BKN050CB
     FM310300 03012KT P6SM BKN100=



    US Dept of Commerce
    National Oceanic and Atmospheric Administration
    National Weather Service
    1325 East West Highway
    Silver Spring, MD 20910
    Page Author: NWS Internet Services Team
Disclaimer
Information Quality
Credits
Glossary
Privacy Policy
Freedom of Information Act (FOIA)
About Us
Career Opportunities